Oshima Airport

Current Flights

Departures
Number Departure To Airline
Arrivals
Number Arrival From Airline
Info
Name: Oshima Airport
Identifier:  OIM/RJTO
Local Time:  20. May 19:16
City
Oshima
  Japan

Flights per Day
0 flights
Distance: 93km (58mi)
Current Weather
 20 C (Humidity: 72%)
  11kt (20km/h / 12mph) from 150°
  Few clouds at 2,000 feet (609 meter)
  Scattered clouds at 2,500 feet (762 meter)
  Broken clouds at 7,000 feet (2,133 meter)
  9km (6 mi.)
 Light/Moderate: Showers Rain
 METAR RJTO 200800Z 15011KT 120V180 9999 -SHRA FEW020 SCT025 BKN070 20/15 Q1013

Current Delays

Departures
N/A
Arrivals
N/A

Destinations

Top Destinations
Airport Flights
per week
Seats
per week
  Tokyo (HND) <1 - 0 0

Airlines & Planes

Top Airlines
Airline Flights
per Day
Seats
per Day
  Skymark Airlines <1 -
Top Plane Types
Manufacturer Model Flights Seats